PWSweather.com
Personal Weather Stations
Station Observations
KMIEASTT1
Tawas Bay, East Tawas, MI 48730

Tawas BayEast Tawas, MI 48730

Lat: 44.28, Lon: -83.48

Elevation: 600

Station Type: Davis VantagePro

http://www.tawasbayweather.com

High Low Average
Temperature 36.0°F2.2°C 26.7°F-2.9°C 31.7°F-0.2°C
Dew Point 31.6°F-0.2°C 22.5°F-5.3°C 28.0°F-2.2°C
Winds 9.0 mph 14.5 kmh Calm Calm 3.0 mph SW4.8 kmh SW
Wind Gusts 10.0 mph16.1 kmh -- 4.0 mph6.4 kmh
Humidity 92% 78% 86%
Pressure 30.42 in1030.1 mb 30.26 in1024.7 mb -
Precipitation 0.00 in0.0 mm - -
Hour Temp Dew Point Humidity Winds Wind Gusts Pressure Precip Precip Rate Daily Precip Total
12:00 AM 31.4°F-0.3°C 25.7°F-3.5°C 79% Calm Calm -- 30.38 in1028.8 mb 0.00 in0.0 mm 0.00 in0.0 mm 0.00 in0.0 mm
12:15 AM 30.7°F-0.7°C 25.3°F-3.7°C 80% Calm Calm -- 30.38 in1028.8 mb 0.00 in0.0 mm 0.00 in0.0 mm 0.00 in0.0 mm
12:30 AM 29.3°F-1.5°C 24.8°F-4.0°C 83% Calm Calm -- 30.38 in1028.8 mb 0.00 in0.0 mm 0.00 in0.0 mm 0.00 in0.0 mm
12:45 AM 29.0°F-1.7°C 24.8°F-4.0°C 84% Calm Calm -- 30.39 in1029.1 mb 0.00 in0.0 mm 0.00 in0.0 mm 0.00 in0.0 mm
01:00 AM 28.5°F-1.9°C 24.6°F-4.1°C 85% Calm Calm -- 30.39 in1029.1 mb 0.00 in0.0 mm 0.00 in0.0 mm 0.00 in0.0 mm
01:15 AM 28.1°F-2.2°C 24.5°F-4.2°C 86% Calm Calm -- 30.39 in1029.1 mb 0.00 in0.0 mm 0.00 in0.0 mm 0.00 in0.0 mm
01:30 AM 27.5°F-2.5°C 24.2°F-4.3°C 87% Calm Calm 1.0 mph1.6 kmh 30.39 in1029.1 mb 0.00 in0.0 mm 0.00 in0.0 mm 0.00 in0.0 mm
01:45 AM 27.0°F-2.8°C 23.9°F-4.5°C 88% Calm Calm -- 30.39 in1029.1 mb 0.00 in0.0 mm 0.00 in0.0 mm 0.00 in0.0 mm
02:00 AM 26.7°F-2.9°C 23.6°F-4.7°C 88% Calm Calm -- 30.39 in1029.1 mb 0.00 in0.0 mm 0.00 in0.0 mm 0.00 in0.0 mm
02:15 AM 26.9°F-2.8°C 24.1°F-4.4°C 89% Calm Calm -- 30.40 in1029.5 mb 0.00 in0.0 mm 0.00 in0.0 mm 0.00 in0.0 mm
02:30 AM 27.0°F-2.8°C 24.2°F-4.3°C 89% Calm Calm -- 30.40 in1029.5 mb 0.00 in0.0 mm 0.00 in0.0 mm 0.00 in0.0 mm
02:45 AM 27.3°F-2.6°C 24.5°F-4.2°C 89% Calm Calm -- 30.40 in1029.5 mb 0.00 in0.0 mm 0.00 in0.0 mm 0.00 in0.0 mm
03:00 AM 27.5°F-2.5°C 24.7°F-4.1°C 89% Calm Calm -- 30.40 in1029.5 mb 0.00 in0.0 mm 0.00 in0.0 mm 0.00 in0.0 mm
03:15 AM 26.9°F-2.8°C 24.1°F-4.4°C 89% Calm Calm -- 30.40 in1029.5 mb 0.00 in0.0 mm 0.00 in0.0 mm 0.00 in0.0 mm
03:30 AM 26.8°F-2.9°C 24.0°F-4.4°C 89% Calm Calm -- 30.39 in1029.1 mb 0.00 in0.0 mm 0.00 in0.0 mm 0.00 in0.0 mm
03:45 AM 27.2°F-2.7°C 24.4°F-4.2°C 89% Calm Calm -- 30.39 in1029.1 mb 0.00 in0.0 mm 0.00 in0.0 mm 0.00 in0.0 mm
04:00 AM 27.2°F-2.7°C 24.7°F-4.1°C 90% Calm Calm -- 30.39 in1029.1 mb 0.00 in0.0 mm 0.00 in0.0 mm 0.00 in0.0 mm
04:15 AM 27.7°F-2.4°C 24.9°F-3.9°C 89% Calm Calm -- 30.38 in1028.8 mb 0.00 in0.0 mm 0.00 in0.0 mm 0.00 in0.0 mm
04:30 AM 28.2°F-2.1°C 25.4°F-3.7°C 89% Calm Calm -- 30.38 in1028.8 mb 0.00 in0.0 mm 0.00 in0.0 mm 0.00 in0.0 mm
04:45 AM 28.5°F-1.9°C 25.7°F-3.5°C 89% Calm Calm -- 30.38 in1028.8 mb 0.00 in0.0 mm 0.00 in0.0 mm 0.00 in0.0 mm
05:00 AM 28.8°F-1.8°C 25.7°F-3.5°C 88% Calm Calm -- 30.38 in1028.8 mb 0.00 in0.0 mm 0.00 in0.0 mm 0.00 in0.0 mm
05:15 AM 29.1°F-1.6°C 26.0°F-3.3°C 88% Calm Calm -- 30.38 in1028.8 mb 0.00 in0.0 mm 0.00 in0.0 mm 0.00 in0.0 mm
05:30 AM 29.2°F-1.6°C 26.1°F-3.3°C 88% Calm Calm -- 30.38 in1028.8 mb 0.00 in0.0 mm 0.00 in0.0 mm 0.00 in0.0 mm
05:45 AM 28.7°F-1.8°C 25.3°F-3.7°C 87% Calm Calm 1.0 mph1.6 kmh 30.39 in1029.1 mb 0.00 in0.0 mm 0.00 in0.0 mm 0.00 in0.0 mm
06:00 AM 28.2°F-2.1°C 24.3°F-4.3°C 85% Calm Calm -- 30.39 in1029.1 mb 0.00 in0.0 mm 0.00 in0.0 mm 0.00 in0.0 mm
06:15 AM 28.0°F-2.2°C 23.8°F-4.6°C 84% Calm Calm -- 30.37 in1028.4 mb 0.00 in0.0 mm 0.00 in0.0 mm 0.00 in0.0 mm
06:30 AM 27.8°F-2.3°C 23.6°F-4.7°C 84% Calm Calm -- 30.36 in1028.1 mb 0.00 in0.0 mm 0.00 in0.0 mm 0.00 in0.0 mm
06:45 AM 27.8°F-2.3°C 23.6°F-4.7°C 84% Calm Calm 2.0 mph3.2 kmh 30.35 in1027.8 mb 0.00 in0.0 mm 0.00 in0.0 mm 0.00 in0.0 mm
07:00 AM 27.7°F-2.4°C 23.2°F-4.9°C 83% 2.0 mph SW3.2 kmh SW 4.0 mph6.4 kmh 30.35 in1027.8 mb 0.00 in0.0 mm 0.00 in0.0 mm 0.00 in0.0 mm
07:15 AM 27.4°F-2.6°C 22.9°F-5.1°C 83% Calm Calm -- 30.35 in1027.8 mb 0.00 in0.0 mm 0.00 in0.0 mm 0.00 in0.0 mm
07:31 AM 27.6°F-2.4°C 22.5°F-5.3°C 81% Calm Calm -- 30.36 in1028.1 mb 0.00 in0.0 mm 0.00 in0.0 mm 0.00 in0.0 mm
07:45 AM 27.7°F-2.4°C 22.6°F-5.2°C 81% Calm Calm -- 30.37 in1028.4 mb 0.00 in0.0 mm 0.00 in0.0 mm 0.00 in0.0 mm
08:00 AM 27.8°F-2.3°C 22.7°F-5.2°C 81% Calm Calm -- 30.37 in1028.4 mb 0.00 in0.0 mm 0.00 in0.0 mm 0.00 in0.0 mm
08:15 AM 27.7°F-2.4°C 23.2°F-4.9°C 83% Calm Calm -- 30.38 in1028.8 mb 0.00 in0.0 mm 0.00 in0.0 mm 0.00 in0.0 mm
08:30 AM 27.9°F-2.3°C 23.4°F-4.8°C 83% Calm Calm -- 30.38 in1028.8 mb 0.00 in0.0 mm 0.00 in0.0 mm 0.00 in0.0 mm
08:45 AM 28.5°F-1.9°C 24.0°F-4.4°C 83% Calm Calm -- 30.38 in1028.8 mb 0.00 in0.0 mm 0.00 in0.0 mm 0.00 in0.0 mm
09:00 AM 28.9°F-1.7°C 24.7°F-4.1°C 84% 1.0 mph SW1.6 kmh SW 1.0 mph1.6 kmh 30.39 in1029.1 mb 0.00 in0.0 mm 0.00 in0.0 mm 0.00 in0.0 mm
09:15 AM 28.3°F-2.1°C 24.1°F-4.4°C 84% Calm Calm 1.0 mph1.6 kmh 30.40 in1029.5 mb 0.00 in0.0 mm 0.00 in0.0 mm 0.00 in0.0 mm
09:30 AM 29.4°F-1.4°C 24.9°F-3.9°C 83% Calm Calm 4.0 mph6.4 kmh 30.40 in1029.5 mb 0.00 in0.0 mm 0.00 in0.0 mm 0.00 in0.0 mm
09:45 AM 30.7°F-0.7°C 25.6°F-3.6°C 81% Calm Calm -- 30.40 in1029.5 mb 0.00 in0.0 mm 0.00 in0.0 mm 0.00 in0.0 mm
10:00 AM 30.9°F-0.6°C 25.8°F-3.4°C 81% Calm Calm 2.0 mph3.2 kmh 30.41 in1029.8 mb 0.00 in0.0 mm 0.00 in0.0 mm 0.00 in0.0 mm
10:15 AM 30.7°F-0.7°C 26.5°F-3.1°C 84% 1.0 mph SE1.6 kmh SE 4.0 mph6.4 kmh 30.41 in1029.8 mb 0.00 in0.0 mm 0.00 in0.0 mm 0.00 in0.0 mm
10:30 AM 31.9°F-0.1°C 27.6°F-2.4°C 84% 3.0 mph SE4.8 kmh SE 4.0 mph6.4 kmh 30.42 in1030.1 mb 0.00 in0.0 mm 0.00 in0.0 mm 0.00 in0.0 mm
10:45 AM 32.0°F0.0°C 27.1°F-2.7°C 82% 2.0 mph SE3.2 kmh SE 4.0 mph6.4 kmh 30.42 in1030.1 mb 0.00 in0.0 mm 0.00 in0.0 mm 0.00 in0.0 mm
11:00 AM 31.5°F-0.3°C 27.2°F-2.7°C 84% 2.0 mph SE3.2 kmh SE 3.0 mph4.8 kmh 30.42 in1030.1 mb 0.00 in0.0 mm 0.00 in0.0 mm 0.00 in0.0 mm
11:15 AM 31.9°F-0.1°C 27.9°F-2.3°C 85% 4.0 mph SE6.4 kmh SE 5.0 mph8.0 kmh 30.42 in1030.1 mb 0.00 in0.0 mm 0.00 in0.0 mm 0.00 in0.0 mm
11:30 AM 32.8°F0.4°C 28.8°F-1.8°C 85% 5.0 mph SE8.0 kmh SE 5.0 mph8.0 kmh 30.42 in1030.1 mb 0.00 in0.0 mm 0.00 in0.0 mm 0.00 in0.0 mm
11:45 AM 32.8°F0.4°C 29.1°F-1.6°C 86% 2.0 mph SE3.2 kmh SE 3.0 mph4.8 kmh 30.42 in1030.1 mb 0.00 in0.0 mm 0.00 in0.0 mm 0.00 in0.0 mm
12:00 PM 33.4°F0.8°C 30.0°F-1.1°C 87% 6.0 mph SE9.7 kmh SE 8.0 mph12.9 kmh 30.42 in1030.1 mb 0.00 in0.0 mm 0.00 in0.0 mm 0.00 in0.0 mm
12:15 PM 33.7°F0.9°C 30.3°F-0.9°C 87% 5.0 mph SE8.0 kmh SE 8.0 mph12.9 kmh 30.42 in1030.1 mb 0.00 in0.0 mm 0.00 in0.0 mm 0.00 in0.0 mm
12:30 PM 34.0°F1.1°C 30.8°F-0.7°C 88% 5.0 mph SE8.0 kmh SE 7.0 mph11.3 kmh 30.41 in1029.8 mb 0.00 in0.0 mm 0.00 in0.0 mm 0.00 in0.0 mm
12:45 PM 33.9°F1.1°C 31.0°F-0.6°C 89% 5.0 mph SE8.0 kmh SE 8.0 mph12.9 kmh 30.41 in1029.8 mb 0.00 in0.0 mm 0.00 in0.0 mm 0.00 in0.0 mm
01:00 PM 33.9°F1.1°C 31.3°F-0.4°C 90% 4.0 mph SSE6.4 kmh SSE 7.0 mph11.3 kmh 30.41 in1029.8 mb 0.00 in0.0 mm 0.00 in0.0 mm 0.00 in0.0 mm
01:15 PM 33.3°F0.7°C 30.7°F-0.7°C 90% 7.0 mph SSE11.3 kmh SSE 9.0 mph14.5 kmh 30.40 in1029.5 mb 0.00 in0.0 mm 0.00 in0.0 mm 0.00 in0.0 mm
01:30 PM 33.2°F0.7°C 30.6°F-0.8°C 90% 8.0 mph SSE12.9 kmh SSE 10.0 mph16.1 kmh 30.40 in1029.5 mb 0.00 in0.0 mm 0.00 in0.0 mm 0.00 in0.0 mm
01:45 PM 33.2°F0.7°C 30.9°F-0.6°C 91% 9.0 mph SSE14.5 kmh SSE 10.0 mph16.1 kmh 30.40 in1029.5 mb 0.00 in0.0 mm 0.00 in0.0 mm 0.00 in0.0 mm
02:00 PM 33.1°F0.6°C 30.8°F-0.7°C 91% 5.0 mph SE8.0 kmh SE 7.0 mph11.3 kmh 30.40 in1029.5 mb 0.00 in0.0 mm 0.00 in0.0 mm 0.00 in0.0 mm
02:15 PM 33.8°F1.0°C 31.2°F-0.4°C 90% 7.0 mph SSE11.3 kmh SSE 8.0 mph12.9 kmh 30.40 in1029.5 mb 0.00 in0.0 mm 0.00 in0.0 mm 0.00 in0.0 mm
02:30 PM 33.6°F0.9°C 31.0°F-0.6°C 90% 6.0 mph SSE9.7 kmh SSE 8.0 mph12.9 kmh 30.39 in1029.1 mb 0.00 in0.0 mm 0.00 in0.0 mm 0.00 in0.0 mm
02:45 PM 34.3°F1.3°C 31.4°F-0.3°C 89% 8.0 mph SE12.9 kmh SE 9.0 mph14.5 kmh 30.39 in1029.1 mb 0.00 in0.0 mm 0.00 in0.0 mm 0.00 in0.0 mm
03:00 PM 34.3°F1.3°C 31.1°F-0.5°C 88% 7.0 mph SE11.3 kmh SE 9.0 mph14.5 kmh 30.38 in1028.8 mb 0.00 in0.0 mm 0.00 in0.0 mm 0.00 in0.0 mm
03:15 PM 34.7°F1.5°C 31.5°F-0.3°C 88% 8.0 mph SE12.9 kmh SE 9.0 mph14.5 kmh 30.37 in1028.4 mb 0.00 in0.0 mm 0.00 in0.0 mm 0.00 in0.0 mm
03:30 PM 34.8°F1.6°C 31.6°F-0.2°C 88% 7.0 mph SE11.3 kmh SE 10.0 mph16.1 kmh 30.37 in1028.4 mb 0.00 in0.0 mm 0.00 in0.0 mm 0.00 in0.0 mm
03:45 PM 35.3°F1.8°C 31.3°F-0.4°C 85% 8.0 mph SSE12.9 kmh SSE 10.0 mph16.1 kmh 30.36 in1028.1 mb 0.00 in0.0 mm 0.00 in0.0 mm 0.00 in0.0 mm
04:00 PM 35.4°F1.9°C 31.4°F-0.3°C 85% 7.0 mph SSE11.3 kmh SSE 10.0 mph16.1 kmh 30.36 in1028.1 mb 0.00 in0.0 mm 0.00 in0.0 mm 0.00 in0.0 mm
04:15 PM 35.7°F2.1°C 31.1°F-0.5°C 83% 7.0 mph SSE11.3 kmh SSE 10.0 mph16.1 kmh 30.35 in1027.8 mb 0.00 in0.0 mm 0.00 in0.0 mm 0.00 in0.0 mm
04:30 PM 35.5°F1.9°C 31.2°F-0.4°C 84% 9.0 mph SSE14.5 kmh SSE 10.0 mph16.1 kmh 30.35 in1027.8 mb 0.00 in0.0 mm 0.00 in0.0 mm 0.00 in0.0 mm
04:45 PM 35.8°F2.1°C 31.2°F-0.4°C 83% 6.0 mph SSE9.7 kmh SSE 7.0 mph11.3 kmh 30.34 in1027.4 mb 0.00 in0.0 mm 0.00 in0.0 mm 0.00 in0.0 mm
05:00 PM 35.7°F2.1°C 31.4°F-0.3°C 84% 6.0 mph SSE9.7 kmh SSE 8.0 mph12.9 kmh 30.33 in1027.1 mb 0.00 in0.0 mm 0.00 in0.0 mm 0.00 in0.0 mm
05:15 PM 35.7°F2.1°C 31.4°F-0.3°C 84% 6.0 mph SSE9.7 kmh SSE 9.0 mph14.5 kmh 30.32 in1026.8 mb 0.00 in0.0 mm 0.00 in0.0 mm 0.00 in0.0 mm
05:30 PM 35.7°F2.1°C 31.4°F-0.3°C 84% 6.0 mph SSE9.7 kmh SSE 8.0 mph12.9 kmh 30.32 in1026.8 mb 0.00 in0.0 mm 0.00 in0.0 mm 0.00 in0.0 mm
05:45 PM 35.9°F2.2°C 31.3°F-0.4°C 83% 9.0 mph SSE14.5 kmh SSE 9.0 mph14.5 kmh 30.31 in1026.4 mb 0.00 in0.0 mm 0.00 in0.0 mm 0.00 in0.0 mm
06:00 PM 36.0°F2.2°C 31.4°F-0.3°C 83% 4.0 mph SSE6.4 kmh SSE 7.0 mph11.3 kmh 30.31 in1026.4 mb 0.00 in0.0 mm 0.00 in0.0 mm 0.00 in0.0 mm
06:15 PM 35.9°F2.2°C 31.3°F-0.4°C 83% 8.0 mph S12.9 kmh S 9.0 mph14.5 kmh 30.30 in1026.1 mb 0.00 in0.0 mm 0.00 in0.0 mm 0.00 in0.0 mm
06:30 PM 35.9°F2.2°C 31.3°F-0.4°C 83% 5.0 mph SSE8.0 kmh SSE 7.0 mph11.3 kmh 30.30 in1026.1 mb 0.00 in0.0 mm 0.00 in0.0 mm 0.00 in0.0 mm
06:45 PM 35.5°F1.9°C 31.2°F-0.4°C 84% 6.0 mph S9.7 kmh S 8.0 mph12.9 kmh 30.30 in1026.1 mb 0.00 in0.0 mm 0.00 in0.0 mm 0.00 in0.0 mm
07:00 PM 35.2°F1.8°C 30.9°F-0.6°C 84% 5.0 mph S8.0 kmh S 8.0 mph12.9 kmh 30.29 in1025.7 mb 0.00 in0.0 mm 0.00 in0.0 mm 0.00 in0.0 mm
07:15 PM 34.7°F1.5°C 31.0°F-0.6°C 86% 4.0 mph S6.4 kmh S 6.0 mph9.7 kmh 30.29 in1025.7 mb 0.00 in0.0 mm 0.00 in0.0 mm 0.00 in0.0 mm
07:30 PM 34.4°F1.3°C 31.2°F-0.4°C 88% 2.0 mph S3.2 kmh S 7.0 mph11.3 kmh 30.29 in1025.7 mb 0.00 in0.0 mm 0.00 in0.0 mm 0.00 in0.0 mm
07:45 PM 34.4°F1.3°C 30.9°F-0.6°C 87% 7.0 mph S11.3 kmh S 8.0 mph12.9 kmh 30.28 in1025.4 mb 0.00 in0.0 mm 0.00 in0.0 mm 0.00 in0.0 mm
08:00 PM 34.2°F1.2°C 31.0°F-0.6°C 88% 4.0 mph SSE6.4 kmh SSE 6.0 mph9.7 kmh 30.28 in1025.4 mb 0.00 in0.0 mm 0.00 in0.0 mm 0.00 in0.0 mm
08:15 PM 34.0°F1.1°C 30.8°F-0.7°C 88% 4.0 mph SSE6.4 kmh SSE 6.0 mph9.7 kmh 30.28 in1025.4 mb 0.00 in0.0 mm 0.00 in0.0 mm 0.00 in0.0 mm
08:30 PM 33.9°F1.1°C 31.0°F-0.6°C 89% 3.0 mph SSE4.8 kmh SSE 5.0 mph8.0 kmh 30.28 in1025.4 mb 0.00 in0.0 mm 0.00 in0.0 mm 0.00 in0.0 mm
08:45 PM 33.6°F0.9°C 30.7°F-0.7°C 89% 1.0 mph S1.6 kmh S 2.0 mph3.2 kmh 30.28 in1025.4 mb 0.00 in0.0 mm 0.00 in0.0 mm 0.00 in0.0 mm
09:00 PM 33.7°F0.9°C 30.8°F-0.7°C 89% 1.0 mph SSE1.6 kmh SSE 3.0 mph4.8 kmh 30.28 in1025.4 mb 0.00 in0.0 mm 0.00 in0.0 mm 0.00 in0.0 mm
09:15 PM 33.7°F0.9°C 30.8°F-0.7°C 89% 2.0 mph S3.2 kmh S 3.0 mph4.8 kmh 30.28 in1025.4 mb 0.00 in0.0 mm 0.00 in0.0 mm 0.00 in0.0 mm
09:30 PM 33.4°F0.8°C 30.5°F-0.8°C 89% Calm Calm 1.0 mph1.6 kmh 30.28 in1025.4 mb 0.00 in0.0 mm 0.00 in0.0 mm 0.00 in0.0 mm
09:45 PM 33.3°F0.7°C 30.7°F-0.7°C 90% Calm Calm 2.0 mph3.2 kmh 30.28 in1025.4 mb 0.00 in0.0 mm 0.00 in0.0 mm 0.00 in0.0 mm
10:00 PM 33.0°F0.6°C 30.7°F-0.7°C 91% Calm Calm -- 30.28 in1025.4 mb 0.00 in0.0 mm 0.00 in0.0 mm 0.00 in0.0 mm
10:15 PM 32.8°F0.4°C 30.5°F-0.8°C 91% Calm Calm -- 30.28 in1025.4 mb 0.00 in0.0 mm 0.00 in0.0 mm 0.00 in0.0 mm
10:30 PM 32.7°F0.4°C 30.6°F-0.8°C 92% Calm Calm -- 30.28 in1025.4 mb 0.00 in0.0 mm 0.00 in0.0 mm 0.00 in0.0 mm
10:45 PM 32.6°F0.3°C 30.5°F-0.8°C 92% Calm Calm -- 30.28 in1025.4 mb 0.00 in0.0 mm 0.00 in0.0 mm 0.00 in0.0 mm
11:00 PM 32.6°F0.3°C 30.5°F-0.8°C 92% Calm Calm -- 30.27 in1025.1 mb 0.00 in0.0 mm 0.00 in0.0 mm 0.00 in0.0 mm
11:15 PM 33.1°F0.6°C 30.2°F-1.0°C 89% Calm Calm 2.0 mph3.2 kmh 30.27 in1025.1 mb 0.00 in0.0 mm 0.00 in0.0 mm 0.00 in0.0 mm
11:30 PM 34.3°F1.3°C 29.7°F-1.3°C 83% 2.0 mph WSW3.2 kmh WSW 4.0 mph6.4 kmh 30.27 in1025.1 mb 0.00 in0.0 mm 0.00 in0.0 mm 0.00 in0.0 mm
11:45 PM 34.9°F1.6°C 28.8°F-1.8°C 78% 4.0 mph WSW6.4 kmh WSW 5.0 mph8.0 kmh 30.27 in1025.1 mb 0.00 in0.0 mm 0.00 in0.0 mm 0.00 in0.0 mm